sensor_id;sensor_type;location;lat;lon;timestamp;P1;durP1;ratioP1;P2;durP2;ratioP2
20894;SDS011;10607;42.066;24.742;2022-10-22T00:02:06;20.27;;;11.57;;
20894;SDS011;10607;42.066;24.742;2022-10-22T00:04:32;22.43;;;11.17;;
20894;SDS011;10607;42.066;24.742;2022-10-22T00:06:58;22.30;;;11.17;;
20894;SDS011;10607;42.066;24.742;2022-10-22T00:09:23;25.20;;;12.70;;
20894;SDS011;10607;42.066;24.742;2022-10-22T00:11:49;19.87;;;11.53;;
20894;SDS011;10607;42.066;24.742;2022-10-22T00:14:14;17.53;;;11.03;;
20894;SDS011;10607;42.066;24.742;2022-10-22T00:16:40;15.27;;;10.40;;
20894;SDS011;10607;42.066;24.742;2022-10-22T00:19:06;22.87;;;10.77;;
20894;SDS011;10607;42.066;24.742;2022-10-22T00:21:33;17.33;;;10.00;;
20894;SDS011;10607;42.066;24.742;2022-10-22T00:23:59;14.43;;;9.70;;
20894;SDS011;10607;42.066;24.742;2022-10-22T00:26:24;15.47;;;10.80;;
20894;SDS011;10607;42.066;24.742;2022-10-22T00:28:50;15.57;;;9.73;;
20894;SDS011;10607;42.066;24.742;2022-10-22T00:31:15;16.97;;;9.87;;
20894;SDS011;10607;42.066;24.742;2022-10-22T00:33:43;15.00;;;9.47;;
20894;SDS011;10607;42.066;24.742;2022-10-22T00:36:11;16.23;;;10.00;;
20894;SDS011;10607;42.066;24.742;2022-10-22T00:38:36;15.17;;;9.80;;
20894;SDS011;10607;42.066;24.742;2022-10-22T00:41:02;17.27;;;9.87;;
20894;SDS011;10607;42.066;24.742;2022-10-22T00:43:27;15.93;;;9.80;;
20894;SDS011;10607;42.066;24.742;2022-10-22T00:45:53;16.73;;;9.80;;
20894;SDS011;10607;42.066;24.742;2022-10-22T00:48:22;15.80;;;10.10;;
20894;SDS011;10607;42.066;24.742;2022-10-22T00:53:35;18.73;;;9.73;;
20894;SDS011;10607;42.066;24.742;2022-10-22T00:56:04;17.43;;;9.97;;
20894;SDS011;10607;42.066;24.742;2022-10-22T00:58:32;13.53;;;9.50;;
20894;SDS011;10607;42.066;24.742;2022-10-22T01:01:00;14.10;;;9.30;;
20894;SDS011;10607;42.066;24.742;2022-10-22T01:03:27;14.37;;;9.83;;
20894;SDS011;10607;42.066;24.742;2022-10-22T01:05:56;16.13;;;9.77;;
20894;SDS011;10607;42.066;24.742;2022-10-22T01:18:59;16.23;;;10.00;;
20894;SDS011;10607;42.066;24.742;2022-10-22T01:21:32;16.47;;;10.20;;
20894;SDS011;10607;42.066;24.742;2022-10-22T01:27:07;17.80;;;9.90;;
20894;SDS011;10607;42.066;24.742;2022-10-22T01:29:55;16.50;;;10.90;;
20894;SDS011;10607;42.066;24.742;2022-10-22T01:32:25;15.97;;;9.43;;
20894;SDS011;10607;42.066;24.742;2022-10-22T01:34:56;15.43;;;10.73;;
20894;SDS011;10607;42.066;24.742;2022-10-22T01:37:27;20.60;;;9.97;;
20894;SDS011;10607;42.066;24.742;2022-10-22T01:39:55;16.03;;;10.00;;
20894;SDS011;10607;42.066;24.742;2022-10-22T01:42:23;16.83;;;9.17;;
20894;SDS011;10607;42.066;24.742;2022-10-22T01:44:49;13.83;;;9.50;;
20894;SDS011;10607;42.066;24.742;2022-10-22T01:47:16;15.63;;;10.47;;
20894;SDS011;10607;42.066;24.742;2022-10-22T01:55:40;14.80;;;9.80;;
20894;SDS011;10607;42.066;24.742;2022-10-22T02:00:54;13.07;;;9.40;;
20894;SDS011;10607;42.066;24.742;2022-10-22T02:03:26;10.90;;;8.57;;
20894;SDS011;10607;42.066;24.742;2022-10-22T02:05:58;12.77;;;9.03;;
20894;SDS011;10607;42.066;24.742;2022-10-22T02:08:30;11.67;;;8.70;;
20894;SDS011;10607;42.066;24.742;2022-10-22T02:10:57;14.93;;;9.37;;
20894;SDS011;10607;42.066;24.742;2022-10-22T02:13:26;13.17;;;8.33;;
20894;SDS011;10607;42.066;24.742;2022-10-22T02:15:55;12.03;;;9.00;;
20894;SDS011;10607;42.066;24.742;2022-10-22T02:18:23;14.67;;;9.33;;
20894;SDS011;10607;42.066;24.742;2022-10-22T02:20:52;19.30;;;9.00;;
20894;SDS011;10607;42.066;24.742;2022-10-22T02:23:20;19.00;;;10.87;;
20894;SDS011;10607;42.066;24.742;2022-10-22T02:25:47;17.87;;;10.93;;
20894;SDS011;10607;42.066;24.742;2022-10-22T02:30:53;25.57;;;13.73;;
20894;SDS011;10607;42.066;24.742;2022-10-22T02:33:28;19.30;;;11.83;;
20894;SDS011;10607;42.066;24.742;2022-10-22T02:35:57;19.87;;;11.97;;
20894;SDS011;10607;42.066;24.742;2022-10-22T02:38:25;19.53;;;11.87;;
20894;SDS011;10607;42.066;24.742;2022-10-22T02:40:52;17.43;;;10.00;;
20894;SDS011;10607;42.066;24.742;2022-10-22T02:43:18;21.10;;;10.93;;
20894;SDS011;10607;42.066;24.742;2022-10-22T02:45:43;16.87;;;11.07;;
20894;SDS011;10607;42.066;24.742;2022-10-22T02:48:10;21.77;;;12.23;;
20894;SDS011;10607;42.066;24.742;2022-10-22T02:50:35;21.00;;;12.53;;
20894;SDS011;10607;42.066;24.742;2022-10-22T02:53:01;19.40;;;12.03;;
20894;SDS011;10607;42.066;24.742;2022-10-22T02:55:26;23.33;;;13.87;;
20894;SDS011;10607;42.066;24.742;2022-10-22T02:57:52;21.07;;;12.07;;
20894;SDS011;10607;42.066;24.742;2022-10-22T03:00:17;22.93;;;13.67;;
20894;SDS011;10607;42.066;24.742;2022-10-22T03:02:43;20.47;;;14.73;;
20894;SDS011;10607;42.066;24.742;2022-10-22T03:05:08;24.30;;;14.00;;
20894;SDS011;10607;42.066;24.742;2022-10-22T03:07:34;20.17;;;13.90;;
20894;SDS011;10607;42.066;24.742;2022-10-22T03:09:59;17.73;;;12.90;;
20894;SDS011;10607;42.066;24.742;2022-10-22T03:12:24;19.93;;;12.97;;
20894;SDS011;10607;42.066;24.742;2022-10-22T03:14:50;17.60;;;11.53;;
20894;SDS011;10607;42.066;24.742;2022-10-22T03:17:15;16.23;;;11.27;;
20894;SDS011;10607;42.066;24.742;2022-10-22T03:19:41;14.93;;;10.30;;
20894;SDS011;10607;42.066;24.742;2022-10-22T03:22:08;20.83;;;10.23;;
20894;SDS011;10607;42.066;24.742;2022-10-22T03:24:38;15.63;;;9.43;;
20894;SDS011;10607;42.066;24.742;2022-10-22T03:27:06;13.40;;;9.00;;
20894;SDS011;10607;42.066;24.742;2022-10-22T03:29:33;14.27;;;9.70;;
20894;SDS011;10607;42.066;24.742;2022-10-22T03:32:01;14.50;;;8.93;;
20894;SDS011;10607;42.066;24.742;2022-10-22T03:34:27;12.67;;;8.23;;
20894;SDS011;10607;42.066;24.742;2022-10-22T03:36:52;14.10;;;7.73;;
20894;SDS011;10607;42.066;24.742;2022-10-22T03:39:20;14.03;;;9.60;;
20894;SDS011;10607;42.066;24.742;2022-10-22T03:41:48;14.70;;;9.87;;
20894;SDS011;10607;42.066;24.742;2022-10-22T03:44:14;14.57;;;9.13;;
20894;SDS011;10607;42.066;24.742;2022-10-22T03:46:41;16.93;;;9.90;;
20894;SDS011;10607;42.066;24.742;2022-10-22T03:49:07;14.87;;;10.27;;
20894;SDS011;10607;42.066;24.742;2022-10-22T03:51:32;16.57;;;10.20;;
20894;SDS011;10607;42.066;24.742;2022-10-22T03:53:58;16.97;;;10.43;;
20894;SDS011;10607;42.066;24.742;2022-10-22T03:56:24;17.20;;;11.00;;
20894;SDS011;10607;42.066;24.742;2022-10-22T03:58:49;15.57;;;10.10;;
20894;SDS011;10607;42.066;24.742;2022-10-22T04:01:15;17.90;;;10.03;;
20894;SDS011;10607;42.066;24.742;2022-10-22T04:03:40;18.43;;;10.13;;
20894;SDS011;10607;42.066;24.742;2022-10-22T04:06:07;14.93;;;9.10;;
20894;SDS011;10607;42.066;24.742;2022-10-22T04:08:40;17.13;;;8.60;;
20894;SDS011;10607;42.066;24.742;2022-10-22T04:11:07;15.80;;;8.07;;
20894;SDS011;10607;42.066;24.742;2022-10-22T04:13:33;14.13;;;8.53;;
20894;SDS011;10607;42.066;24.742;2022-10-22T04:16:06;16.10;;;9.77;;
20894;SDS011;10607;42.066;24.742;2022-10-22T04:18:33;13.53;;;8.23;;
20894;SDS011;10607;42.066;24.742;2022-10-22T04:20:58;16.30;;;9.67;;
20894;SDS011;10607;42.066;24.742;2022-10-22T04:23:24;16.30;;;9.80;;
20894;SDS011;10607;42.066;24.742;2022-10-22T04:25:55;18.93;;;9.60;;
20894;SDS011;10607;42.066;24.742;2022-10-22T04:28:22;15.30;;;9.33;;
20894;SDS011;10607;42.066;24.742;2022-10-22T04:30:47;18.47;;;10.43;;
20894;SDS011;10607;42.066;24.742;2022-10-22T04:33:12;14.47;;;9.80;;
20894;SDS011;10607;42.066;24.742;2022-10-22T04:35:38;20.20;;;10.10;;
20894;SDS011;10607;42.066;24.742;2022-10-22T04:38:04;22.67;;;9.60;;
20894;SDS011;10607;42.066;24.742;2022-10-22T04:40:29;17.23;;;10.07;;
20894;SDS011;10607;42.066;24.742;2022-10-22T04:42:55;16.47;;;10.53;;
20894;SDS011;10607;42.066;24.742;2022-10-22T04:45:20;21.77;;;10.90;;
20894;SDS011;10607;42.066;24.742;2022-10-22T04:47:46;21.00;;;10.33;;
20894;SDS011;10607;42.066;24.742;2022-10-22T04:50:11;13.73;;;10.40;;
20894;SDS011;10607;42.066;24.742;2022-10-22T04:52:37;18.97;;;10.67;;
20894;SDS011;10607;42.066;24.742;2022-10-22T04:55:02;13.83;;;9.33;;
20894;SDS011;10607;42.066;24.742;2022-10-22T04:57:28;15.50;;;10.00;;
20894;SDS011;10607;42.066;24.742;2022-10-22T04:59:55;21.03;;;10.53;;
20894;SDS011;10607;42.066;24.742;2022-10-22T05:02:20;15.73;;;9.77;;
20894;SDS011;10607;42.066;24.742;2022-10-22T05:04:46;25.57;;;12.23;;
20894;SDS011;10607;42.066;24.742;2022-10-22T05:07:11;17.60;;;10.50;;
20894;SDS011;10607;42.066;24.742;2022-10-22T05:09:37;14.17;;;9.27;;
20894;SDS011;10607;42.066;24.742;2022-10-22T05:12:02;25.83;;;10.93;;
20894;SDS011;10607;42.066;24.742;2022-10-22T05:14:28;21.93;;;10.87;;
20894;SDS011;10607;42.066;24.742;2022-10-22T05:16:53;26.17;;;11.30;;
20894;SDS011;10607;42.066;24.742;2022-10-22T05:19:20;26.33;;;10.77;;
20894;SDS011;10607;42.066;24.742;2022-10-22T05:21:51;26.17;;;11.80;;
20894;SDS011;10607;42.066;24.742;2022-10-22T05:24:18;24.87;;;11.27;;
20894;SDS011;10607;42.066;24.742;2022-10-22T05:26:44;15.37;;;10.37;;
20894;SDS011;10607;42.066;24.742;2022-10-22T05:29:10;22.83;;;12.53;;
20894;SDS011;10607;42.066;24.742;2022-10-22T05:31:35;18.40;;;11.43;;
20894;SDS011;10607;42.066;24.742;2022-10-22T05:34:00;24.37;;;11.17;;
20894;SDS011;10607;42.066;24.742;2022-10-22T05:36:26;21.40;;;12.33;;
20894;SDS011;10607;42.066;24.742;2022-10-22T05:38:52;16.17;;;11.80;;
20894;SDS011;10607;42.066;24.742;2022-10-22T05:41:21;17.43;;;11.20;;
20894;SDS011;10607;42.066;24.742;2022-10-22T05:43:48;26.10;;;11.13;;
20894;SDS011;10607;42.066;24.742;2022-10-22T05:46:14;19.33;;;10.83;;
20894;SDS011;10607;42.066;24.742;2022-10-22T05:48:47;22.27;;;11.40;;
20894;SDS011;10607;42.066;24.742;2022-10-22T05:51:17;20.10;;;11.68;;
20894;SDS011;10607;42.066;24.742;2022-10-22T05:53:43;19.85;;;9.43;;
20894;SDS011;10607;42.066;24.742;2022-10-22T05:56:14;16.23;;;9.70;;
20894;SDS011;10607;42.066;24.742;2022-10-22T05:58:41;16.08;;;10.02;;
20894;SDS011;10607;42.066;24.742;2022-10-22T06:01:10;16.55;;;10.88;;
20894;SDS011;10607;42.066;24.742;2022-10-22T06:03:37;16.63;;;9.75;;
20894;SDS011;10607;42.066;24.742;2022-10-22T06:06:14;15.10;;;9.48;;
20894;SDS011;10607;42.066;24.742;2022-10-22T06:08:45;21.95;;;10.82;;
20894;SDS011;10607;42.066;24.742;2022-10-22T06:11:11;21.25;;;9.73;;
20894;SDS011;10607;42.066;24.742;2022-10-22T06:13:37;18.27;;;9.68;;
20894;SDS011;10607;42.066;24.742;2022-10-22T06:16:02;16.05;;;10.20;;
20894;SDS011;10607;42.066;24.742;2022-10-22T06:18:28;24.52;;;11.20;;
20894;SDS011;10607;42.066;24.742;2022-10-22T06:20:53;14.38;;;9.80;;
20894;SDS011;10607;42.066;24.742;2022-10-22T06:23:19;16.55;;;9.80;;
20894;SDS011;10607;42.066;24.742;2022-10-22T06:25:54;21.38;;;10.10;;
20894;SDS011;10607;42.066;24.742;2022-10-22T06:28:20;13.85;;;9.52;;
20894;SDS011;10607;42.066;24.742;2022-10-22T06:30:46;20.17;;;8.63;;
20894;SDS011;10607;42.066;24.742;2022-10-22T06:33:11;17.55;;;9.27;;
20894;SDS011;10607;42.066;24.742;2022-10-22T06:35:36;14.80;;;9.20;;
20894;SDS011;10607;42.066;24.742;2022-10-22T06:38:02;17.88;;;9.23;;
20894;SDS011;10607;42.066;24.742;2022-10-22T06:40:27;18.58;;;9.98;;
20894;SDS011;10607;42.066;24.742;2022-10-22T06:42:53;12.75;;;9.35;;
20894;SDS011;10607;42.066;24.742;2022-10-22T06:45:18;15.55;;;9.52;;
20894;SDS011;10607;42.066;24.742;2022-10-22T06:47:44;17.77;;;9.10;;
20894;SDS011;10607;42.066;24.742;2022-10-22T06:50:10;16.83;;;9.77;;
20894;SDS011;10607;42.066;24.742;2022-10-22T06:52:36;16.15;;;9.38;;
20894;SDS011;10607;42.066;24.742;2022-10-22T06:55:01;15.52;;;9.63;;
20894;SDS011;10607;42.066;24.742;2022-10-22T06:57:28;19.63;;;9.68;;
20894;SDS011;10607;42.066;24.742;2022-10-22T06:59:54;22.38;;;10.73;;
20894;SDS011;10607;42.066;24.742;2022-10-22T07:02:20;15.80;;;9.75;;
20894;SDS011;10607;42.066;24.742;2022-10-22T07:04:45;17.40;;;10.57;;
20894;SDS011;10607;42.066;24.742;2022-10-22T07:07:11;22.65;;;11.00;;
20894;SDS011;10607;42.066;24.742;2022-10-22T07:09:36;23.08;;;11.85;;
20894;SDS011;10607;42.066;24.742;2022-10-22T07:12:03;21.80;;;10.52;;
20894;SDS011;10607;42.066;24.742;2022-10-22T07:14:28;17.45;;;10.27;;
20894;SDS011;10607;42.066;24.742;2022-10-22T07:16:54;15.43;;;11.13;;
20894;SDS011;10607;42.066;24.742;2022-10-22T07:19:19;19.52;;;10.00;;
20894;SDS011;10607;42.066;24.742;2022-10-22T07:21:45;19.77;;;9.88;;
20894;SDS011;10607;42.066;24.742;2022-10-22T07:24:10;16.00;;;9.75;;
20894;SDS011;10607;42.066;24.742;2022-10-22T07:26:36;20.50;;;10.20;;
20894;SDS011;10607;42.066;24.742;2022-10-22T07:29:01;15.85;;;9.43;;
20894;SDS011;10607;42.066;24.742;2022-10-22T07:31:28;20.75;;;9.50;;
20894;SDS011;10607;42.066;24.742;2022-10-22T07:33:54;20.38;;;9.88;;
20894;SDS011;10607;42.066;24.742;2022-10-22T07:36:19;15.70;;;9.60;;
20894;SDS011;10607;42.066;24.742;2022-10-22T07:38:45;20.17;;;10.60;;
20894;SDS011;10607;42.066;24.742;2022-10-22T07:41:13;17.75;;;10.45;;
20894;SDS011;10607;42.066;24.742;2022-10-22T07:43:39;19.40;;;9.80;;
20894;SDS011;10607;42.066;24.742;2022-10-22T07:46:05;18.98;;;10.05;;
20894;SDS011;10607;42.066;24.742;2022-10-22T07:48:32;20.23;;;9.35;;
20894;SDS011;10607;42.066;24.742;2022-10-22T07:50:59;15.02;;;9.05;;
20894;SDS011;10607;42.066;24.742;2022-10-22T07:53:25;16.58;;;8.55;;
20894;SDS011;10607;42.066;24.742;2022-10-22T07:55:50;17.98;;;8.77;;
20894;SDS011;10607;42.066;24.742;2022-10-22T07:58:16;15.98;;;8.57;;
20894;SDS011;10607;42.066;24.742;2022-10-22T08:00:43;13.43;;;7.97;;
20894;SDS011;10607;42.066;24.742;2022-10-22T08:03:12;14.57;;;7.85;;
20894;SDS011;10607;42.066;24.742;2022-10-22T08:05:39;12.70;;;8.13;;
20894;SDS011;10607;42.066;24.742;2022-10-22T08:08:05;11.57;;;8.23;;
20894;SDS011;10607;42.066;24.742;2022-10-22T08:10:31;18.40;;;8.48;;
20894;SDS011;10607;42.066;24.742;2022-10-22T08:12:57;11.48;;;7.80;;
20894;SDS011;10607;42.066;24.742;2022-10-22T08:15:23;14.65;;;8.30;;
20894;SDS011;10607;42.066;24.742;2022-10-22T08:17:49;12.88;;;8.35;;
20894;SDS011;10607;42.066;24.742;2022-10-22T08:20:15;13.30;;;8.75;;
20894;SDS011;10607;42.066;24.742;2022-10-22T08:22:41;12.40;;;8.30;;
20894;SDS011;10607;42.066;24.742;2022-10-22T08:25:07;17.08;;;8.30;;
20894;SDS011;10607;42.066;24.742;2022-10-22T08:27:32;18.55;;;9.02;;
20894;SDS011;10607;42.066;24.742;2022-10-22T08:29:58;11.85;;;7.78;;
20894;SDS011;10607;42.066;24.742;2022-10-22T08:32:24;14.50;;;8.65;;
20894;SDS011;10607;42.066;24.742;2022-10-22T08:34:49;17.60;;;8.52;;
20894;SDS011;10607;42.066;24.742;2022-10-22T08:37:15;14.20;;;8.05;;
20894;SDS011;10607;42.066;24.742;2022-10-22T08:39:41;13.32;;;8.68;;
20894;SDS011;10607;42.066;24.742;2022-10-22T08:44:44;13.10;;;8.30;;
20894;SDS011;10607;42.066;24.742;2022-10-22T08:47:57;17.23;;;8.95;;
20894;SDS011;10607;42.066;24.742;2022-10-22T08:50:33;25.35;;;8.38;;
20894;SDS011;10607;42.066;24.742;2022-10-22T08:53:04;16.45;;;8.02;;
20894;SDS011;10607;42.066;24.742;2022-10-22T08:55:32;14.65;;;8.82;;
20894;SDS011;10607;42.066;24.742;2022-10-22T08:58:02;11.93;;;8.68;;
20894;SDS011;10607;42.066;24.742;2022-10-22T09:03:36;14.52;;;7.97;;
20894;SDS011;10607;42.066;24.742;2022-10-22T09:08:42;13.70;;;7.47;;
20894;SDS011;10607;42.066;24.742;2022-10-22T09:13:46;14.85;;;8.02;;
20894;SDS011;10607;42.066;24.742;2022-10-22T09:26:40;16.63;;;7.07;;
20894;SDS011;10607;42.066;24.742;2022-10-22T09:29:08;17.08;;;7.32;;
20894;SDS011;10607;42.066;24.742;2022-10-22T09:31:45;14.35;;;7.20;;
20894;SDS011;10607;42.066;24.742;2022-10-22T09:34:13;10.75;;;6.95;;
20894;SDS011;10607;42.066;24.742;2022-10-22T09:36:39;14.88;;;6.85;;
20894;SDS011;10607;42.066;24.742;2022-10-22T09:39:10;17.40;;;7.43;;
20894;SDS011;10607;42.066;24.742;2022-10-22T09:41:48;8.57;;;6.82;;
20894;SDS011;10607;42.066;24.742;2022-10-22T09:44:13;10.77;;;7.13;;
20894;SDS011;10607;42.066;24.742;2022-10-22T09:46:38;12.23;;;6.90;;
20894;SDS011;10607;42.066;24.742;2022-10-22T09:49:17;10.65;;;6.90;;
20894;SDS011;10607;42.066;24.742;2022-10-22T09:54:20;8.32;;;5.95;;
20894;SDS011;10607;42.066;24.742;2022-10-22T09:59:37;9.07;;;6.15;;
20894;SDS011;10607;42.066;24.742;2022-10-22T10:02:09;10.48;;;6.13;;
20894;SDS011;10607;42.066;24.742;2022-10-22T10:04:39;18.40;;;7.05;;
20894;SDS011;10607;42.066;24.742;2022-10-22T10:07:21;12.13;;;6.50;;
20894;SDS011;10607;42.066;24.742;2022-10-22T10:09:48;9.07;;;6.88;;
20894;SDS011;10607;42.066;24.742;2022-10-22T10:23:21;10.43;;;6.82;;
20894;SDS011;10607;42.066;24.742;2022-10-22T10:25:56;13.95;;;6.85;;
20894;SDS011;10607;42.066;24.742;2022-10-22T10:28:38;15.38;;;6.53;;
20894;SDS011;10607;42.066;24.742;2022-10-22T10:34:04;15.18;;;7.10;;
20894;SDS011;10607;42.066;24.742;2022-10-22T10:39:03;10.48;;;5.65;;
20894;SDS011;10607;42.066;24.742;2022-10-22T10:41:37;17.85;;;7.03;;
20894;SDS011;10607;42.066;24.742;2022-10-22T10:49:38;18.85;;;6.63;;
20894;SDS011;10607;42.066;24.742;2022-10-22T10:58:10;12.85;;;6.00;;
20894;SDS011;10607;42.066;24.742;2022-10-22T11:00:16;9.85;;;6.60;;
20894;SDS011;10607;42.066;24.742;2022-10-22T11:08:51;11.93;;;6.47;;
20894;SDS011;10607;42.066;24.742;2022-10-22T11:11:11;17.98;;;6.70;;
20894;SDS011;10607;42.066;24.742;2022-10-22T11:13:51;13.27;;;6.60;;
20894;SDS011;10607;42.066;24.742;2022-10-22T11:21:49;12.07;;;6.88;;
20894;SDS011;10607;42.066;24.742;2022-10-22T11:24:23;18.27;;;6.60;;
20894;SDS011;10607;42.066;24.742;2022-10-22T11:29:31;16.10;;;7.10;;
20894;SDS011;10607;42.066;24.742;2022-10-22T11:32:03;22.23;;;7.75;;
20894;SDS011;10607;42.066;24.742;2022-10-22T11:34:33;13.38;;;6.70;;
20894;SDS011;10607;42.066;24.742;2022-10-22T11:37:08;16.65;;;7.05;;
20894;SDS011;10607;42.066;24.742;2022-10-22T11:39:39;18.38;;;8.07;;
20894;SDS011;10607;42.066;24.742;2022-10-22T11:42:10;23.65;;;9.23;;
20894;SDS011;10607;42.066;24.742;2022-10-22T11:44:47;12.15;;;6.18;;
20894;SDS011;10607;42.066;24.742;2022-10-22T11:47:23;14.02;;;7.07;;
20894;SDS011;10607;42.066;24.742;2022-10-22T12:03:36;14.30;;;6.65;;
20894;SDS011;10607;42.066;24.742;2022-10-22T12:14:12;15.48;;;7.38;;
20894;SDS011;10607;42.066;24.742;2022-10-22T12:16:58;14.02;;;6.88;;
20894;SDS011;10607;42.066;24.742;2022-10-22T12:19:41;12.85;;;6.88;;
20894;SDS011;10607;42.066;24.742;2022-10-22T12:24:41;21.73;;;7.40;;
20894;SDS011;10607;42.066;24.742;2022-10-22T12:29:52;20.55;;;7.13;;
20894;SDS011;10607;42.066;24.742;2022-10-22T12:32:23;23.88;;;7.43;;
20894;SDS011;10607;42.066;24.742;2022-10-22T12:34:56;15.63;;;6.63;;
20894;SDS011;10607;42.066;24.742;2022-10-22T12:37:27;16.77;;;6.78;;
20894;SDS011;10607;42.066;24.742;2022-10-22T12:39:53;19.40;;;7.22;;
20894;SDS011;10607;42.066;24.742;2022-10-22T12:42:18;14.57;;;7.55;;
20894;SDS011;10607;42.066;24.742;2022-10-22T12:44:46;19.20;;;7.22;;
20894;SDS011;10607;42.066;24.742;2022-10-22T12:47:15;15.18;;;8.52;;
20894;SDS011;10607;42.066;24.742;2022-10-22T12:49:43;16.40;;;7.03;;
20894;SDS011;10607;42.066;24.742;2022-10-22T12:52:13;20.38;;;7.03;;
20894;SDS011;10607;42.066;24.742;2022-10-22T12:54:43;12.98;;;6.45;;
20894;SDS011;10607;42.066;24.742;2022-10-22T12:57:14;19.95;;;6.93;;
20894;SDS011;10607;42.066;24.742;2022-10-22T12:59:42;15.32;;;6.65;;
20894;SDS011;10607;42.066;24.742;2022-10-22T13:02:15;10.60;;;6.82;;
20894;SDS011;10607;42.066;24.742;2022-10-22T13:07:52;21.17;;;7.40;;
20894;SDS011;10607;42.066;24.742;2022-10-22T13:10:26;20.20;;;7.20;;
20894;SDS011;10607;42.066;24.742;2022-10-22T13:12:57;20.42;;;7.18;;
20894;SDS011;10607;42.066;24.742;2022-10-22T13:17:59;16.65;;;7.07;;
20894;SDS011;10607;42.066;24.742;2022-10-22T13:20:26;16.95;;;6.68;;
20894;SDS011;10607;42.066;24.742;2022-10-22T13:22:53;19.50;;;8.30;;
20894;SDS011;10607;42.066;24.742;2022-10-22T13:25:36;21.38;;;7.20;;
20894;SDS011;10607;42.066;24.742;2022-10-22T13:28:18;12.00;;;6.40;;
20894;SDS011;10607;42.066;24.742;2022-10-22T13:30:58;13.20;;;6.20;;
20894;SDS011;10607;42.066;24.742;2022-10-22T13:33:27;19.25;;;7.53;;
20894;SDS011;10607;42.066;24.742;2022-10-22T13:35:57;16.27;;;7.10;;
20894;SDS011;10607;42.066;24.742;2022-10-22T13:38:23;13.70;;;6.82;;
20894;SDS011;10607;42.066;24.742;2022-10-22T13:40:50;17.40;;;6.47;;
20894;SDS011;10607;42.066;24.742;2022-10-22T13:43:16;20.10;;;6.60;;
20894;SDS011;10607;42.066;24.742;2022-10-22T13:45:43;14.65;;;6.63;;
20894;SDS011;10607;42.066;24.742;2022-10-22T13:48:17;11.05;;;6.03;;
20894;SDS011;10607;42.066;24.742;2022-10-22T13:50:46;13.10;;;6.05;;
20894;SDS011;10607;42.066;24.742;2022-10-22T13:53:14;14.23;;;6.38;;
20894;SDS011;10607;42.066;24.742;2022-10-22T13:55:42;19.75;;;6.65;;
20894;SDS011;10607;42.066;24.742;2022-10-22T14:00:36;28.25;;;9.40;;
20894;SDS011;10607;42.066;24.742;2022-10-22T14:03:03;15.52;;;7.32;;
20894;SDS011;10607;42.066;24.742;2022-10-22T14:05:30;17.95;;;7.63;;
20894;SDS011;10607;42.066;24.742;2022-10-22T14:07:59;13.98;;;7.35;;
20894;SDS011;10607;42.066;24.742;2022-10-22T14:10:26;18.90;;;7.22;;
20894;SDS011;10607;42.066;24.742;2022-10-22T14:12:52;17.40;;;8.32;;
20894;SDS011;10607;42.066;24.742;2022-10-22T14:15:18;39.88;;;9.50;;
20894;SDS011;10607;42.066;24.742;2022-10-22T14:17:48;20.45;;;8.02;;
20894;SDS011;10607;42.066;24.742;2022-10-22T14:20:19;22.70;;;7.47;;
20894;SDS011;10607;42.066;24.742;2022-10-22T14:22:50;31.88;;;8.13;;
20894;SDS011;10607;42.066;24.742;2022-10-22T14:25:18;15.18;;;6.72;;
20894;SDS011;10607;42.066;24.742;2022-10-22T14:27:45;13.27;;;6.80;;
20894;SDS011;10607;42.066;24.742;2022-10-22T14:30:13;19.05;;;7.55;;
20894;SDS011;10607;42.066;24.742;2022-10-22T14:32:45;17.48;;;6.60;;
20894;SDS011;10607;42.066;24.742;2022-10-22T14:35:13;33.63;;;6.97;;
20894;SDS011;10607;42.066;24.742;2022-10-22T14:37:40;20.02;;;7.38;;
20894;SDS011;10607;42.066;24.742;2022-10-22T14:40:07;32.88;;;7.18;;
20894;SDS011;10607;42.066;24.742;2022-10-22T14:42:37;19.15;;;7.18;;
20894;SDS011;10607;42.066;24.742;2022-10-22T14:45:06;20.88;;;7.38;;
20894;SDS011;10607;42.066;24.742;2022-10-22T14:47:45;15.27;;;6.63;;
20894;SDS011;10607;42.066;24.742;2022-10-22T14:50:11;24.98;;;7.20;;
20894;SDS011;10607;42.066;24.742;2022-10-22T14:52:38;26.02;;;8.35;;
20894;SDS011;10607;42.066;24.742;2022-10-22T14:55:04;25.75;;;8.20;;
20894;SDS011;10607;42.066;24.742;2022-10-22T14:57:30;29.83;;;13.63;;
20894;SDS011;10607;42.066;24.742;2022-10-22T14:59:56;23.65;;;10.38;;
20894;SDS011;10607;42.066;24.742;2022-10-22T15:02:21;21.23;;;9.35;;
20894;SDS011;10607;42.066;24.742;2022-10-22T15:04:47;15.48;;;7.30;;
20894;SDS011;10607;42.066;24.742;2022-10-22T15:07:13;17.63;;;8.50;;
20894;SDS011;10607;42.066;24.742;2022-10-22T15:09:39;26.27;;;8.23;;
20894;SDS011;10607;42.066;24.742;2022-10-22T15:12:04;20.67;;;7.30;;
20894;SDS011;10607;42.066;24.742;2022-10-22T15:14:30;20.77;;;8.73;;
20894;SDS011;10607;42.066;24.742;2022-10-22T15:16:55;18.17;;;8.48;;
20894;SDS011;10607;42.066;24.742;2022-10-22T15:19:21;20.33;;;8.77;;
20894;SDS011;10607;42.066;24.742;2022-10-22T15:21:46;18.98;;;8.73;;
20894;SDS011;10607;42.066;24.742;2022-10-22T15:24:12;36.72;;;9.60;;
20894;SDS011;10607;42.066;24.742;2022-10-22T15:26:37;25.92;;;9.02;;
20894;SDS011;10607;42.066;24.742;2022-10-22T15:29:03;35.03;;;9.20;;
20894;SDS011;10607;42.066;24.742;2022-10-22T15:34:20;22.77;;;8.20;;
20894;SDS011;10607;42.066;24.742;2022-10-22T15:36:48;18.00;;;8.27;;
20894;SDS011;10607;42.066;24.742;2022-10-22T15:39:14;13.15;;;7.75;;
20894;SDS011;10607;42.066;24.742;2022-10-22T15:41:40;27.25;;;8.50;;
20894;SDS011;10607;42.066;24.742;2022-10-22T15:44:06;23.23;;;8.73;;
20894;SDS011;10607;42.066;24.742;2022-10-22T15:46:32;18.40;;;9.05;;
20894;SDS011;10607;42.066;24.742;2022-10-22T15:48:59;19.10;;;8.80;;
20894;SDS011;10607;42.066;24.742;2022-10-22T15:51:25;23.52;;;9.07;;
20894;SDS011;10607;42.066;24.742;2022-10-22T15:53:51;23.50;;;8.25;;
20894;SDS011;10607;42.066;24.742;2022-10-22T15:56:19;23.45;;;11.60;;
20894;SDS011;10607;42.066;24.742;2022-10-22T15:58:45;20.90;;;8.90;;
20894;SDS011;10607;42.066;24.742;2022-10-22T16:01:11;22.20;;;9.05;;
20894;SDS011;10607;42.066;24.742;2022-10-22T16:03:38;18.52;;;8.18;;
20894;SDS011;10607;42.066;24.742;2022-10-22T16:06:04;23.75;;;9.15;;
20894;SDS011;10607;42.066;24.742;2022-10-22T16:08:31;23.17;;;9.25;;
20894;SDS011;10607;42.066;24.742;2022-10-22T16:10:57;16.77;;;9.40;;
20894;SDS011;10607;42.066;24.742;2022-10-22T16:13:23;17.70;;;9.25;;
20894;SDS011;10607;42.066;24.742;2022-10-22T16:15:50;17.35;;;8.63;;
20894;SDS011;10607;42.066;24.742;2022-10-22T16:18:16;15.55;;;9.18;;
20894;SDS011;10607;42.066;24.742;2022-10-22T16:20:42;22.38;;;8.52;;
20894;SDS011;10607;42.066;24.742;2022-10-22T16:23:08;20.73;;;9.85;;
20894;SDS011;10607;42.066;24.742;2022-10-22T16:25:37;18.00;;;8.93;;
20894;SDS011;10607;42.066;24.742;2022-10-22T16:28:03;14.77;;;8.75;;
20894;SDS011;10607;42.066;24.742;2022-10-22T16:30:31;20.77;;;9.10;;
20894;SDS011;10607;42.066;24.742;2022-10-22T16:32:59;18.73;;;9.45;;
20894;SDS011;10607;42.066;24.742;2022-10-22T16:35:24;20.33;;;9.05;;
20894;SDS011;10607;42.066;24.742;2022-10-22T16:37:50;22.45;;;9.43;;